sensor_id;sensor_type;location;lat;lon;timestamp;temperature;humidity
15879;DHT22;61999;51.514;14.614;2023-06-14T00:00:40;8.80;48.10
15879;DHT22;61999;51.514;14.614;2023-06-14T00:03:11;8.70;48.00
15879;DHT22;61999;51.514;14.614;2023-06-14T00:05:44;8.70;48.20
15879;DHT22;61999;51.514;14.614;2023-06-14T00:08:13;8.70;48.40
15879;DHT22;61999;51.514;14.614;2023-06-14T00:10:42;8.70;48.50
15879;DHT22;61999;51.514;14.614;2023-06-14T00:13:10;8.60;48.40
15879;DHT22;61999;51.514;14.614;2023-06-14T00:15:38;8.60;48.60
15879;DHT22;61999;51.514;14.614;2023-06-14T00:18:06;8.50;48.50
15879;DHT22;61999;51.514;14.614;2023-06-14T00:20:37;8.50;48.80
15879;DHT22;61999;51.514;14.614;2023-06-14T00:23:06;8.50;49.20
15879;DHT22;61999;51.514;14.614;2023-06-14T00:25:34;8.40;49.00
15879;DHT22;61999;51.514;14.614;2023-06-14T00:28:02;8.40;49.00
15879;DHT22;61999;51.514;14.614;2023-06-14T00:30:30;8.40;49.20
15879;DHT22;61999;51.514;14.614;2023-06-14T00:32:58;8.40;49.40
15879;DHT22;61999;51.514;14.614;2023-06-14T00:35:27;8.30;50.20
15879;DHT22;61999;51.514;14.614;2023-06-14T00:37:56;8.30;49.60
15879;DHT22;61999;51.514;14.614;2023-06-14T00:40:24;8.30;49.50
15879;DHT22;61999;51.514;14.614;2023-06-14T00:42:53;8.20;49.60
15879;DHT22;61999;51.514;14.614;2023-06-14T00:45:21;8.20;50.00
15879;DHT22;61999;51.514;14.614;2023-06-14T00:47:50;8.20;50.10
15879;DHT22;61999;51.514;14.614;2023-06-14T00:50:22;8.20;50.40
15879;DHT22;61999;51.514;14.614;2023-06-14T00:52:50;8.10;50.40
15879;DHT22;61999;51.514;14.614;2023-06-14T00:55:20;8.10;50.30
15879;DHT22;61999;51.514;14.614;2023-06-14T00:57:48;8.10;50.80
15879;DHT22;61999;51.514;14.614;2023-06-14T01:00:17;8.00;50.60
15879;DHT22;61999;51.514;14.614;2023-06-14T01:02:45;8.00;50.70
15879;DHT22;61999;51.514;14.614;2023-06-14T01:05:14;8.00;50.60
15879;DHT22;61999;51.514;14.614;2023-06-14T01:07:50;7.90;51.00
15879;DHT22;61999;51.514;14.614;2023-06-14T01:10:35;7.90;50.90
15879;DHT22;61999;51.514;14.614;2023-06-14T01:13:13;7.90;50.80
15879;DHT22;61999;51.514;14.614;2023-06-14T01:15:48;7.90;51.50
15879;DHT22;61999;51.514;14.614;2023-06-14T01:18:18;7.80;51.30
15879;DHT22;61999;51.514;14.614;2023-06-14T01:20:47;7.80;51.70
15879;DHT22;61999;51.514;14.614;2023-06-14T01:23:19;7.80;51.50
15879;DHT22;61999;51.514;14.614;2023-06-14T01:25:49;7.80;51.50
15879;DHT22;61999;51.514;14.614;2023-06-14T01:28:20;7.70;51.30
15879;DHT22;61999;51.514;14.614;2023-06-14T01:30:50;7.70;51.20
15879;DHT22;61999;51.514;14.614;2023-06-14T01:33:25;7.60;51.40
15879;DHT22;61999;51.514;14.614;2023-06-14T01:35:55;7.60;51.30
15879;DHT22;61999;51.514;14.614;2023-06-14T01:38:26;7.50;51.30
15879;DHT22;61999;51.514;14.614;2023-06-14T01:40:57;7.50;51.50
15879;DHT22;61999;51.514;14.614;2023-06-14T01:43:30;7.50;51.60
15879;DHT22;61999;51.514;14.614;2023-06-14T01:45:59;7.50;51.90
15879;DHT22;61999;51.514;14.614;2023-06-14T01:48:29;7.40;51.80
15879;DHT22;61999;51.514;14.614;2023-06-14T01:50:57;7.40;51.90
15879;DHT22;61999;51.514;14.614;2023-06-14T01:53:26;7.40;52.00
15879;DHT22;61999;51.514;14.614;2023-06-14T01:55:54;7.40;52.10
15879;DHT22;61999;51.514;14.614;2023-06-14T01:58:22;7.30;52.40
15879;DHT22;61999;51.514;14.614;2023-06-14T02:00:51;7.30;52.40
15879;DHT22;61999;51.514;14.614;2023-06-14T02:03:21;7.40;52.70
15879;DHT22;61999;51.514;14.614;2023-06-14T02:05:50;7.30;53.10
15879;DHT22;61999;51.514;14.614;2023-06-14T02:08:18;7.20;52.60
15879;DHT22;61999;51.514;14.614;2023-06-14T02:10:47;7.20;52.50
15879;DHT22;61999;51.514;14.614;2023-06-14T02:13:15;7.20;52.60
15879;DHT22;61999;51.514;14.614;2023-06-14T02:15:43;7.10;52.80
15879;DHT22;61999;51.514;14.614;2023-06-14T02:18:12;7.10;52.80
15879;DHT22;61999;51.514;14.614;2023-06-14T02:20:40;7.10;52.90
15879;DHT22;61999;51.514;14.614;2023-06-14T02:23:08;7.10;53.00
15879;DHT22;61999;51.514;14.614;2023-06-14T02:25:36;7.10;53.20
15879;DHT22;61999;51.514;14.614;2023-06-14T02:28:05;7.00;53.00
15879;DHT22;61999;51.514;14.614;2023-06-14T02:30:33;7.00;53.00
15879;DHT22;61999;51.514;14.614;2023-06-14T02:33:01;7.00;53.00
15879;DHT22;61999;51.514;14.614;2023-06-14T02:35:31;6.90;53.00
15879;DHT22;61999;51.514;14.614;2023-06-14T02:37:59;6.90;53.00
15879;DHT22;61999;51.514;14.614;2023-06-14T02:40:27;6.80;53.00
15879;DHT22;61999;51.514;14.614;2023-06-14T02:42:55;6.80;53.10
15879;DHT22;61999;51.514;14.614;2023-06-14T02:45:24;6.80;53.20
15879;DHT22;61999;51.514;14.614;2023-06-14T02:47:52;6.70;53.10
15879;DHT22;61999;51.514;14.614;2023-06-14T02:50:22;6.70;53.30
15879;DHT22;61999;51.514;14.614;2023-06-14T02:52:50;6.70;53.30
15879;DHT22;61999;51.514;14.614;2023-06-14T02:55:19;6.70;53.40
15879;DHT22;61999;51.514;14.614;2023-06-14T02:57:47;6.70;53.80
15879;DHT22;61999;51.514;14.614;2023-06-14T03:00:16;6.70;54.00
15879;DHT22;61999;51.514;14.614;2023-06-14T03:02:47;6.70;54.80
15879;DHT22;61999;51.514;14.614;2023-06-14T03:05:15;6.70;54.30
15879;DHT22;61999;51.514;14.614;2023-06-14T03:07:47;6.70;54.40
15879;DHT22;61999;51.514;14.614;2023-06-14T03:10:17;6.70;54.50
15879;DHT22;61999;51.514;14.614;2023-06-14T03:12:45;6.60;55.10
15879;DHT22;61999;51.514;14.614;2023-06-14T03:15:13;6.60;54.60
15879;DHT22;61999;51.514;14.614;2023-06-14T03:17:41;6.60;54.60
15879;DHT22;61999;51.514;14.614;2023-06-14T03:20:13;6.60;54.70
15879;DHT22;61999;51.514;14.614;2023-06-14T03:22:42;6.60;54.70
15879;DHT22;61999;51.514;14.614;2023-06-14T03:25:12;6.60;55.40
15879;DHT22;61999;51.514;14.614;2023-06-14T03:27:41;6.60;54.80
15879;DHT22;61999;51.514;14.614;2023-06-14T03:30:10;6.60;54.80
15879;DHT22;61999;51.514;14.614;2023-06-14T03:32:38;6.60;54.90
15879;DHT22;61999;51.514;14.614;2023-06-14T03:35:07;6.60;55.00
15879;DHT22;61999;51.514;14.614;2023-06-14T03:37:38;6.60;55.10
15879;DHT22;61999;51.514;14.614;2023-06-14T03:40:06;6.60;55.10
15879;DHT22;61999;51.514;14.614;2023-06-14T03:42:34;6.60;55.20
15879;DHT22;61999;51.514;14.614;2023-06-14T03:45:03;6.60;55.20
15879;DHT22;61999;51.514;14.614;2023-06-14T03:47:32;6.60;55.20
15879;DHT22;61999;51.514;14.614;2023-06-14T03:50:00;6.60;55.50
15879;DHT22;61999;51.514;14.614;2023-06-14T03:52:29;6.60;55.50
15879;DHT22;61999;51.514;14.614;2023-06-14T03:54:59;6.70;55.70
15879;DHT22;61999;51.514;14.614;2023-06-14T03:57:30;6.70;55.80
15879;DHT22;61999;51.514;14.614;2023-06-14T03:59:58;6.70;55.80
15879;DHT22;61999;51.514;14.614;2023-06-14T04:02:26;6.70;55.80
15879;DHT22;61999;51.514;14.614;2023-06-14T04:04:55;6.70;55.80
15879;DHT22;61999;51.514;14.614;2023-06-14T04:07:23;6.80;55.90
15879;DHT22;61999;51.514;14.614;2023-06-14T04:09:51;6.80;55.90
15879;DHT22;61999;51.514;14.614;2023-06-14T04:12:20;6.80;56.70
15879;DHT22;61999;51.514;14.614;2023-06-14T04:14:49;6.80;56.20
15879;DHT22;61999;51.514;14.614;2023-06-14T04:17:17;6.90;56.10
15879;DHT22;61999;51.514;14.614;2023-06-14T04:19:45;6.90;56.10
15879;DHT22;61999;51.514;14.614;2023-06-14T04:22:14;6.90;56.30
15879;DHT22;61999;51.514;14.614;2023-06-14T04:24:42;6.90;56.30
15879;DHT22;61999;51.514;14.614;2023-06-14T04:27:12;7.00;56.40
15879;DHT22;61999;51.514;14.614;2023-06-14T04:29:42;7.00;56.40
15879;DHT22;61999;51.514;14.614;2023-06-14T04:32:11;7.10;56.50
15879;DHT22;61999;51.514;14.614;2023-06-14T04:34:40;7.10;56.60
15879;DHT22;61999;51.514;14.614;2023-06-14T04:37:09;7.20;56.80
15879;DHT22;61999;51.514;14.614;2023-06-14T04:39:38;7.20;56.70
15879;DHT22;61999;51.514;14.614;2023-06-14T04:42:06;7.30;56.80
15879;DHT22;61999;51.514;14.614;2023-06-14T04:44:34;7.40;57.10
15879;DHT22;61999;51.514;14.614;2023-06-14T04:47:05;7.40;56.90
15879;DHT22;61999;51.514;14.614;2023-06-14T04:49:33;7.50;57.30
15879;DHT22;61999;51.514;14.614;2023-06-14T04:52:01;7.50;56.90
15879;DHT22;61999;51.514;14.614;2023-06-14T04:54:36;7.50;56.80
15879;DHT22;61999;51.514;14.614;2023-06-14T04:57:06;7.60;56.80
15879;DHT22;61999;51.514;14.614;2023-06-14T04:59:35;7.60;56.70
15879;DHT22;61999;51.514;14.614;2023-06-14T05:02:08;7.60;56.60
15879;DHT22;61999;51.514;14.614;2023-06-14T05:04:36;7.70;56.80
15879;DHT22;61999;51.514;14.614;2023-06-14T05:07:06;7.80;57.30
15879;DHT22;61999;51.514;14.614;2023-06-14T05:09:35;7.80;57.00
15879;DHT22;61999;51.514;14.614;2023-06-14T05:12:04;7.80;57.00
15879;DHT22;61999;51.514;14.614;2023-06-14T05:14:34;7.80;57.00
15879;DHT22;61999;51.514;14.614;2023-06-14T05:17:03;7.90;57.00
15879;DHT22;61999;51.514;14.614;2023-06-14T05:19:32;7.90;57.00
15879;DHT22;61999;51.514;14.614;2023-06-14T05:22:00;7.90;56.90
15879;DHT22;61999;51.514;14.614;2023-06-14T05:24:29;8.00;56.90
15879;DHT22;61999;51.514;14.614;2023-06-14T05:26:58;8.00;57.60
15879;DHT22;61999;51.514;14.614;2023-06-14T05:29:26;8.10;57.10
15879;DHT22;61999;51.514;14.614;2023-06-14T05:31:56;8.10;56.90
15879;DHT22;61999;51.514;14.614;2023-06-14T05:34:24;8.20;57.10
15879;DHT22;61999;51.514;14.614;2023-06-14T05:36:53;8.20;57.20
15879;DHT22;61999;51.514;14.614;2023-06-14T05:39:22;8.30;57.40
15879;DHT22;61999;51.514;14.614;2023-06-14T05:41:50;8.30;57.30
15879;DHT22;61999;51.514;14.614;2023-06-14T05:44:18;8.50;57.50
15879;DHT22;61999;51.514;14.614;2023-06-14T05:46:46;8.60;57.50
15879;DHT22;61999;51.514;14.614;2023-06-14T05:49:14;8.60;57.60
15879;DHT22;61999;51.514;14.614;2023-06-14T05:51:42;8.70;57.70
15879;DHT22;61999;51.514;14.614;2023-06-14T05:54:12;8.90;58.00
15879;DHT22;61999;51.514;14.614;2023-06-14T05:56:40;9.00;57.70
15879;DHT22;61999;51.514;14.614;2023-06-14T05:59:08;9.10;57.60
15879;DHT22;61999;51.514;14.614;2023-06-14T06:01:36;9.30;57.60
15879;DHT22;61999;51.514;14.614;2023-06-14T06:04:07;9.30;57.30
15879;DHT22;61999;51.514;14.614;2023-06-14T06:06:35;9.50;57.30
15879;DHT22;61999;51.514;14.614;2023-06-14T06:09:03;9.50;57.20
15879;DHT22;61999;51.514;14.614;2023-06-14T06:11:33;9.60;57.10
15879;DHT22;61999;51.514;14.614;2023-06-14T06:14:06;9.70;57.10
15879;DHT22;61999;51.514;14.614;2023-06-14T06:16:34;9.80;57.00
15879;DHT22;61999;51.514;14.614;2023-06-14T06:19:03;9.90;56.90
15879;DHT22;61999;51.514;14.614;2023-06-14T06:21:31;10.00;56.80
15879;DHT22;61999;51.514;14.614;2023-06-14T06:24:00;10.00;56.60
15879;DHT22;61999;51.514;14.614;2023-06-14T06:26:30;10.10;56.50
15879;DHT22;61999;51.514;14.614;2023-06-14T06:29:00;10.20;56.40
15879;DHT22;61999;51.514;14.614;2023-06-14T06:31:28;10.30;56.30
15879;DHT22;61999;51.514;14.614;2023-06-14T06:33:56;10.40;56.30
15879;DHT22;61999;51.514;14.614;2023-06-14T06:36:25;10.40;56.10
15879;DHT22;61999;51.514;14.614;2023-06-14T06:38:53;10.40;56.00
15879;DHT22;61999;51.514;14.614;2023-06-14T06:41:21;10.50;55.90
15879;DHT22;61999;51.514;14.614;2023-06-14T06:43:49;10.60;56.00
15879;DHT22;61999;51.514;14.614;2023-06-14T06:46:18;10.60;55.90
15879;DHT22;61999;51.514;14.614;2023-06-14T06:48:46;10.70;55.80
15879;DHT22;61999;51.514;14.614;2023-06-14T06:51:14;10.90;55.70
15879;DHT22;61999;51.514;14.614;2023-06-14T06:53:42;10.90;55.40
15879;DHT22;61999;51.514;14.614;2023-06-14T06:56:13;11.00;55.50
15879;DHT22;61999;51.514;14.614;2023-06-14T06:58:41;11.10;55.60
15879;DHT22;61999;51.514;14.614;2023-06-14T07:01:09;11.20;55.30
15879;DHT22;61999;51.514;14.614;2023-06-14T07:03:39;11.30;55.20
15879;DHT22;61999;51.514;14.614;2023-06-14T07:06:07;11.40;55.00
15879;DHT22;61999;51.514;14.614;2023-06-14T07:08:36;11.50;54.90
15879;DHT22;61999;51.514;14.614;2023-06-14T07:11:06;11.60;54.70
15879;DHT22;61999;51.514;14.614;2023-06-14T07:13:34;11.70;54.00
15879;DHT22;61999;51.514;14.614;2023-06-14T07:16:04;11.80;53.70
15879;DHT22;61999;51.514;14.614;2023-06-14T07:18:33;11.80;53.60
15879;DHT22;61999;51.514;14.614;2023-06-14T07:21:03;11.90;53.40
15879;DHT22;61999;51.514;14.614;2023-06-14T07:23:31;11.90;53.30
15879;DHT22;61999;51.514;14.614;2023-06-14T07:25:59;11.90;53.30
15879;DHT22;61999;51.514;14.614;2023-06-14T07:28:27;12.00;53.00
15879;DHT22;61999;51.514;14.614;2023-06-14T07:30:55;12.00;52.90
15879;DHT22;61999;51.514;14.614;2023-06-14T07:33:24;12.00;52.90
15879;DHT22;61999;51.514;14.614;2023-06-14T07:35:52;12.10;52.70
15879;DHT22;61999;51.514;14.614;2023-06-14T07:38:21;12.10;52.80
15879;DHT22;61999;51.514;14.614;2023-06-14T07:40:50;12.20;52.90
15879;DHT22;61999;51.514;14.614;2023-06-14T07:43:18;12.30;52.60
15879;DHT22;61999;51.514;14.614;2023-06-14T07:45:47;12.30;52.80
15879;DHT22;61999;51.514;14.614;2023-06-14T07:48:19;12.40;52.90
15879;DHT22;61999;51.514;14.614;2023-06-14T07:50:48;12.50;52.90
15879;DHT22;61999;51.514;14.614;2023-06-14T07:53:16;12.50;52.60
15879;DHT22;61999;51.514;14.614;2023-06-14T07:55:46;12.50;52.40
15879;DHT22;61999;51.514;14.614;2023-06-14T07:58:19;12.50;52.30
15879;DHT22;61999;51.514;14.614;2023-06-14T08:00:48;12.70;52.40
15879;DHT22;61999;51.514;14.614;2023-06-14T08:03:18;12.80;52.70
15879;DHT22;61999;51.514;14.614;2023-06-14T08:05:46;13.00;52.90
15879;DHT22;61999;51.514;14.614;2023-06-14T08:08:15;13.20;52.80
15879;DHT22;61999;51.514;14.614;2023-06-14T08:10:45;13.40;52.60
15879;DHT22;61999;51.514;14.614;2023-06-14T08:13:14;13.60;52.40
15879;DHT22;61999;51.514;14.614;2023-06-14T08:15:42;13.80;52.10
15879;DHT22;61999;51.514;14.614;2023-06-14T08:18:10;14.00;51.90
15879;DHT22;61999;51.514;14.614;2023-06-14T08:20:39;14.20;51.20
15879;DHT22;61999;51.514;14.614;2023-06-14T08:23:07;14.30;50.90
15879;DHT22;61999;51.514;14.614;2023-06-14T08:25:35;14.50;51.30
15879;DHT22;61999;51.514;14.614;2023-06-14T08:28:05;14.80;51.00
15879;DHT22;61999;51.514;14.614;2023-06-14T08:30:33;14.90;50.70
15879;DHT22;61999;51.514;14.614;2023-06-14T08:33:01;15.10;50.50
15879;DHT22;61999;51.514;14.614;2023-06-14T08:35:40;15.30;50.30
15879;DHT22;61999;51.514;14.614;2023-06-14T08:38:10;15.60;49.70
15879;DHT22;61999;51.514;14.614;2023-06-14T08:40:40;15.80;49.40
15879;DHT22;61999;51.514;14.614;2023-06-14T08:43:11;15.90;48.70
15879;DHT22;61999;51.514;14.614;2023-06-14T08:45:39;16.10;48.50
15879;DHT22;61999;51.514;14.614;2023-06-14T08:48:07;16.30;48.20
15879;DHT22;61999;51.514;14.614;2023-06-14T08:50:40;16.30;48.50
15879;DHT22;61999;51.514;14.614;2023-06-14T08:53:12;16.50;48.20
15879;DHT22;61999;51.514;14.614;2023-06-14T08:55:47;16.70;47.60
15879;DHT22;61999;51.514;14.614;2023-06-14T08:58:18;16.80;47.60
15879;DHT22;61999;51.514;14.614;2023-06-14T09:00:46;17.00;47.20
15879;DHT22;61999;51.514;14.614;2023-06-14T09:03:14;17.10;45.80
15879;DHT22;61999;51.514;14.614;2023-06-14T09:05:43;17.10;45.80
15879;DHT22;61999;51.514;14.614;2023-06-14T09:08:12;16.70;43.40
15879;DHT22;61999;51.514;14.614;2023-06-14T09:10:40;16.60;44.90
15879;DHT22;61999;51.514;14.614;2023-06-14T09:13:09;16.50;45.00
15879;DHT22;61999;51.514;14.614;2023-06-14T09:15:38;16.40;45.00
15879;DHT22;61999;51.514;14.614;2023-06-14T09:18:07;16.10;45.00
15879;DHT22;61999;51.514;14.614;2023-06-14T09:20:35;16.10;45.40
15879;DHT22;61999;51.514;14.614;2023-06-14T09:23:04;16.00;45.70
15879;DHT22;61999;51.514;14.614;2023-06-14T09:25:41;16.00;46.10
15879;DHT22;61999;51.514;14.614;2023-06-14T09:28:10;16.00;46.50
15879;DHT22;61999;51.514;14.614;2023-06-14T09:30:39;16.20;46.60
15879;DHT22;61999;51.514;14.614;2023-06-14T09:33:08;16.30;46.50
15879;DHT22;61999;51.514;14.614;2023-06-14T09:35:36;16.50;46.70
15879;DHT22;61999;51.514;14.614;2023-06-14T09:38:04;16.90;45.90
15879;DHT22;61999;51.514;14.614;2023-06-14T09:40:34;17.30;44.20
15879;DHT22;61999;51.514;14.614;2023-06-14T09:43:07;17.50;44.30
15879;DHT22;61999;51.514;14.614;2023-06-14T09:45:42;17.70;44.60
15879;DHT22;61999;51.514;14.614;2023-06-14T09:48:19;17.90;42.40
15879;DHT22;61999;51.514;14.614;2023-06-14T09:50:51;17.90;42.40
15879;DHT22;61999;51.514;14.614;2023-06-14T09:53:26;17.90;42.00
15879;DHT22;61999;51.514;14.614;2023-06-14T09:55:57;17.80;41.90
15879;DHT22;61999;51.514;14.614;2023-06-14T09:58:31;17.80;42.00
15879;DHT22;61999;51.514;14.614;2023-06-14T10:01:09;17.80;41.80
15879;DHT22;61999;51.514;14.614;2023-06-14T10:03:44;17.70;41.60
15879;DHT22;61999;51.514;14.614;2023-06-14T10:06:30;17.70;41.70
15879;DHT22;61999;51.514;14.614;2023-06-14T10:09:09;17.10;40.90
15879;DHT22;61999;51.514;14.614;2023-06-14T10:11:42;17.10;42.00
15879;DHT22;61999;51.514;14.614;2023-06-14T10:14:21;17.10;42.00
15879;DHT22;61999;51.514;14.614;2023-06-14T10:17:03;17.00;42.40
15879;DHT22;61999;51.514;14.614;2023-06-14T10:19:41;17.00;42.50
15879;DHT22;61999;51.514;14.614;2023-06-14T10:22:16;16.90;42.60
15879;DHT22;61999;51.514;14.614;2023-06-14T10:24:52;16.90;42.50
15879;DHT22;61999;51.514;14.614;2023-06-14T10:27:20;16.80;42.40
15879;DHT22;61999;51.514;14.614;2023-06-14T10:30:08;16.90;42.50
15879;DHT22;61999;51.514;14.614;2023-06-14T10:33:03;16.90;42.90
15879;DHT22;61999;51.514;14.614;2023-06-14T10:35:32;16.80;43.10
15879;DHT22;61999;51.514;14.614;2023-06-14T10:38:08;16.80;43.40
15879;DHT22;61999;51.514;14.614;2023-06-14T10:40:37;16.80;43.50
15879;DHT22;61999;51.514;14.614;2023-06-14T10:43:22;16.80;43.50
15879;DHT22;61999;51.514;14.614;2023-06-14T10:46:12;16.80;43.40
15879;DHT22;61999;51.514;14.614;2023-06-14T10:48:47;16.80;43.50
15879;DHT22;61999;51.514;14.614;2023-06-14T10:51:17;16.80;43.90
15879;DHT22;61999;51.514;14.614;2023-06-14T10:53:50;16.90;43.80
15879;DHT22;61999;51.514;14.614;2023-06-14T10:56:29;17.00;43.70
15879;DHT22;61999;51.514;14.614;2023-06-14T10:58:59;17.00;43.60
15879;DHT22;61999;51.514;14.614;2023-06-14T11:01:40;17.10;43.60
15879;DHT22;61999;51.514;14.614;2023-06-14T11:04:47;17.10;43.50
15879;DHT22;61999;51.514;14.614;2023-06-14T11:07:35;17.20;44.10
15879;DHT22;61999;51.514;14.614;2023-06-14T11:10:26;17.20;43.20
15879;DHT22;61999;51.514;14.614;2023-06-14T11:13:03;17.20;42.80
15879;DHT22;61999;51.514;14.614;2023-06-14T11:15:33;17.20;43.20
15879;DHT22;61999;51.514;14.614;2023-06-14T11:18:04;17.30;43.20
15879;DHT22;61999;51.514;14.614;2023-06-14T11:20:35;17.30;43.50
15879;DHT22;61999;51.514;14.614;2023-06-14T11:23:04;17.40;43.60
15879;DHT22;61999;51.514;14.614;2023-06-14T11:25:32;17.60;44.30
15879;DHT22;61999;51.514;14.614;2023-06-14T11:28:02;17.90;44.70
15879;DHT22;61999;51.514;14.614;2023-06-14T11:30:35;18.40;46.10
15879;DHT22;61999;51.514;14.614;2023-06-14T11:33:10;19.00;45.40
15879;DHT22;61999;51.514;14.614;2023-06-14T11:35:42;19.80;43.30
15879;DHT22;61999;51.514;14.614;2023-06-14T11:38:15;20.50;42.30
15879;DHT22;61999;51.514;14.614;2023-06-14T11:40:45;21.30;42.10
15879;DHT22;61999;51.514;14.614;2023-06-14T11:43:15;22.00;41.50
15879;DHT22;61999;51.514;14.614;2023-06-14T11:45:51;22.80;40.20
15879;DHT22;61999;51.514;14.614;2023-06-14T11:48:37;23.60;38.30
15879;DHT22;61999;51.514;14.614;2023-06-14T11:51:10;24.50;35.40
15879;DHT22;61999;51.514;14.614;2023-06-14T11:53:43;25.20;33.70
15879;DHT22;61999;51.514;14.614;2023-06-14T11:56:14;25.70;33.50
15879;DHT22;61999;51.514;14.614;2023-06-14T11:58:46;26.20;32.30
15879;DHT22;61999;51.514;14.614;2023-06-14T12:01:17;26.80;30.30
15879;DHT22;61999;51.514;14.614;2023-06-14T12:03:54;27.30;30.70
15879;DHT22;61999;51.514;14.614;2023-06-14T12:06:29;27.60;30.60
15879;DHT22;61999;51.514;14.614;2023-06-14T12:09:08;27.80;30.90
15879;DHT22;61999;51.514;14.614;2023-06-14T12:11:41;27.70;26.80
15879;DHT22;61999;51.514;14.614;2023-06-14T12:14:10;28.00;29.40
15879;DHT22;61999;51.514;14.614;2023-06-14T12:16:42;28.50;27.60
15879;DHT22;61999;51.514;14.614;2023-06-14T12:19:14;28.50;29.20
15879;DHT22;61999;51.514;14.614;2023-06-14T12:21:50;28.90;26.50
15879;DHT22;61999;51.514;14.614;2023-06-14T12:24:19;29.30;27.10
15879;DHT22;61999;51.514;14.614;2023-06-14T12:26:52;29.60;27.50
15879;DHT22;61999;51.514;14.614;2023-06-14T12:29:21;29.80;27.50
15879;DHT22;61999;51.514;14.614;2023-06-14T12:31:54;30.10;27.50
15879;DHT22;61999;51.514;14.614;2023-06-14T12:34:30;30.40;25.40
15879;DHT22;61999;51.514;14.614;2023-06-14T12:37:10;30.60;26.50
15879;DHT22;61999;51.514;14.614;2023-06-14T12:39:47;31.00;26.50
15879;DHT22;61999;51.514;14.614;2023-06-14T12:42:19;31.40;26.90
15879;DHT22;61999;51.514;14.614;2023-06-14T12:44:52;31.60;25.60
15879;DHT22;61999;51.514;14.614;2023-06-14T12:47:22;30.20;23.80
15879;DHT22;61999;51.514;14.614;2023-06-14T12:49:51;29.60;25.70
15879;DHT22;61999;51.514;14.614;2023-06-14T12:52:21;30.00;23.90
15879;DHT22;61999;51.514;14.614;2023-06-14T12:54:51;30.50;24.80
15879;DHT22;61999;51.514;14.614;2023-06-14T12:57:27;30.80;24.50
15879;DHT22;61999;51.514;14.614;2023-06-14T13:00:04;31.10;24.80
15879;DHT22;61999;51.514;14.614;2023-06-14T13:02:37;31.80;24.00
15879;DHT22;61999;51.514;14.614;2023-06-14T13:05:07;32.10;24.40
15879;DHT22;61999;51.514;14.614;2023-06-14T13:07:37;31.40;22.30
15879;DHT22;61999;51.514;14.614;2023-06-14T13:10:08;31.60;23.90
15879;DHT22;61999;51.514;14.614;2023-06-14T13:12:41;32.10;24.10
15879;DHT22;61999;51.514;14.614;2023-06-14T13:15:11;32.80;22.80
15879;DHT22;61999;51.514;14.614;2023-06-14T13:17:39;32.60;21.90
15879;DHT22;61999;51.514;14.614;2023-06-14T13:20:16;31.90;22.80
15879;DHT22;61999;51.514;14.614;2023-06-14T13:22:49;31.60;21.70
15879;DHT22;61999;51.514;14.614;2023-06-14T13:25:21;31.40;22.90
15879;DHT22;61999;51.514;14.614;2023-06-14T13:27:52;31.70;23.30
15879;DHT22;61999;51.514;14.614;2023-06-14T13:30:24;32.20;23.10
15879;DHT22;61999;51.514;14.614;2023-06-14T13:32:53;31.40;21.40
15879;DHT22;61999;51.514;14.614;2023-06-14T13:35:26;31.10;22.00
15879;DHT22;61999;51.514;14.614;2023-06-14T13:38:05;30.60;22.20
15879;DHT22;61999;51.514;14.614;2023-06-14T13:40:48;30.10;23.10
15879;DHT22;61999;51.514;14.614;2023-06-14T13:43:22;29.90;23.20
15879;DHT22;61999;51.514;14.614;2023-06-14T13:45:54;30.20;22.40
15879;DHT22;61999;51.514;14.614;2023-06-14T13:48:24;30.20;22.50
15879;DHT22;61999;51.514;14.614;2023-06-14T13:50:59;30.20;22.50
15879;DHT22;61999;51.514;14.614;2023-06-14T13:53:31;30.10;22.90
15879;DHT22;61999;51.514;14.614;2023-06-14T13:56:04;30.30;23.40
15879;DHT22;61999;51.514;14.614;2023-06-14T13:58:39;30.50;23.60
15879;DHT22;61999;51.514;14.614;2023-06-14T14:01:20;30.70;23.60
15879;DHT22;61999;51.514;14.614;2023-06-14T14:03:54;30.90;23.80
15879;DHT22;61999;51.514;14.614;2023-06-14T14:06:31;30.70;22.50
15879;DHT22;61999;51.514;14.614;2023-06-14T14:09:01;30.60;22.60
15879;DHT22;61999;51.514;14.614;2023-06-14T14:11:29;30.80;23.60
15879;DHT22;61999;51.514;14.614;2023-06-14T14:14:00;30.80;23.30
15879;DHT22;61999;51.514;14.614;2023-06-14T14:16:29;31.10;23.50
15879;DHT22;61999;51.514;14.614;2023-06-14T14:18:58;31.20;23.30
15879;DHT22;61999;51.514;14.614;2023-06-14T14:21:26;31.10;23.30
15879;DHT22;61999;51.514;14.614;2023-06-14T14:23:54;30.90;23.40
15879;DHT22;61999;51.514;14.614;2023-06-14T14:26:24;30.60;23.30
15879;DHT22;61999;51.514;14.614;2023-06-14T14:28:55;30.20;23.60
15879;DHT22;61999;51.514;14.614;2023-06-14T14:31:30;30.00;24.10
15879;DHT22;61999;51.514;14.614;2023-06-14T14:33:58;30.10;24.00
15879;DHT22;61999;51.514;14.614;2023-06-14T14:36:28;30.20;24.70
15879;DHT22;61999;51.514;14.614;2023-06-14T14:39:01;30.50;24.80
15879;DHT22;61999;51.514;14.614;2023-06-14T14:41:31;30.90;24.50
15879;DHT22;61999;51.514;14.614;2023-06-14T14:44:01;31.30;24.80
15879;DHT22;61999;51.514;14.614;2023-06-14T14:46:31;31.90;23.80
15879;DHT22;61999;51.514;14.614;2023-06-14T14:49:02;32.20;23.70
15879;DHT22;61999;51.514;14.614;2023-06-14T14:51:33;32.60;23.50
15879;DHT22;61999;51.514;14.614;2023-06-14T14:54:01;32.80;22.90
15879;DHT22;61999;51.514;14.614;2023-06-14T14:56:37;32.80;22.70
15879;DHT22;61999;51.514;14.614;2023-06-14T14:59:07;32.60;22.40
15879;DHT22;61999;51.514;14.614;2023-06-14T15:01:39;32.40;22.40
15879;DHT22;61999;51.514;14.614;2023-06-14T15:04:09;32.00;22.00
15879;DHT22;61999;51.514;14.614;2023-06-14T15:06:44;31.70;22.60
15879;DHT22;61999;51.514;14.614;2023-06-14T15:09:16;31.10;22.50
15879;DHT22;61999;51.514;14.614;2023-06-14T15:11:56;31.20;22.70
15879;DHT22;61999;51.514;14.614;2023-06-14T15:14:39;31.20;23.00
15879;DHT22;61999;51.514;14.614;2023-06-14T15:17:19;31.30;23.00
15879;DHT22;61999;51.514;14.614;2023-06-14T15:19:53;31.50;23.30
15879;DHT22;61999;51.514;14.614;2023-06-14T15:22:21;31.60;22.40
15879;DHT22;61999;51.514;14.614;2023-06-14T15:24:50;31.50;22.70
15879;DHT22;61999;51.514;14.614;2023-06-14T15:27:20;31.10;20.90
15879;DHT22;61999;51.514;14.614;2023-06-14T15:29:48;30.80;21.80
15879;DHT22;61999;51.514;14.614;2023-06-14T15:32:17;30.70;22.50
15879;DHT22;61999;51.514;14.614;2023-06-14T15:34:46;30.80;22.70
15879;DHT22;61999;51.514;14.614;2023-06-14T15:37:18;30.80;22.60
15879;DHT22;61999;51.514;14.614;2023-06-14T15:39:50;30.70;22.00
15879;DHT22;61999;51.514;14.614;2023-06-14T15:42:23;30.60;22.10
15879;DHT22;61999;51.514;14.614;2023-06-14T15:44:51;30.60;22.40